Time,TemperatureF,DewpointF,PressureIn,WindDirection,WindDirectionDegrees,WindSpeedMPH,WindSpeedGustMPH,Humidity,HourlyPrecipIn,Conditions,Clouds,dailyrainin,SoftwareType,DateUTC
2013-05-17 00:00:00,56.8,55.6,29.96,NNE,14,0.0,0.0,96,0.00,,,0.33,WUHU216DAVISVP2,2013-05-17 04:00:00,
2013-05-17 00:01:00,56.8,55.6,29.96,NNE,14,0.0,0.0,96,0.00,,,0.00,WUHU216DAVISVP2,2013-05-17 04:01:00,
2013-05-17 00:06:00,56.7,55.5,29.96,NNE,14,0.0,0.0,96,0.00,,,0.00,WUHU216DAVISVP2,2013-05-17 04:06:00,
2013-05-17 00:11:00,56.6,55.4,29.96,NNE,14,0.0,1.0,96,0.00,,,0.00,WUHU216DAVISVP2,2013-05-17 04:11:00,
2013-05-17 00:16:00,56.6,55.4,29.97,NNE,14,0.0,1.0,96,0.00,,,0.00,WUHU216DAVISVP2,2013-05-17 04:16:00,
2013-05-17 00:21:00,56.5,55.3,29.96,NNE,14,0.0,1.0,96,0.00,,,0.00,WUHU216DAVISVP2,2013-05-17 04:21:00,
2013-05-17 00:26:00,56.4,55.2,29.97,NNE,14,0.0,1.0,96,0.00,,,0.00,WUHU216DAVISVP2,2013-05-17 04:26:00,
2013-05-17 00:31:00,56.4,55.3,29.97,NNE,14,0.0,0.0,96,0.00,,,0.00,WUHU216DAVISVP2,2013-05-17 04:31:00,
2013-05-17 00:36:00,56.5,55.7,29.97,NNE,14,0.0,0.0,97,0.00,,,0.00,WUHU216DAVISVP2,2013-05-17 04:36:00,
2013-05-17 00:41:00,56.5,55.7,29.97,NNE,14,0.0,0.0,97,0.00,,,0.00,WUHU216DAVISVP2,2013-05-17 04:41:00,
2013-05-17 00:46:00,56.5,55.6,29.97,NNE,14,0.0,0.0,97,0.00,,,0.00,WUHU216DAVISVP2,2013-05-17 04:46:00,
2013-05-17 00:51:00,56.5,55.6,29.97,NNE,14,0.0,0.0,97,0.00,,,0.00,WUHU216DAVISVP2,2013-05-17 04:51:00,
2013-05-17 00:56:00,56.4,55.5,29.97,NNE,14,0.0,0.0,97,0.00,,,0.00,WUHU216DAVISVP2,2013-05-17 04:56:00,
2013-05-17 01:01:00,56.3,55.4,29.97,NNE,14,0.0,0.0,97,0.00,,,0.00,WUHU216DAVISVP2,2013-05-17 05:01:00,
2013-05-17 01:06:00,56.3,55.4,29.97,NNE,14,0.0,0.0,97,0.00,,,0.00,WUHU216DAVISVP2,2013-05-17 05:06:00,
2013-05-17 01:11:00,56.3,55.4,29.96,NNE,14,0.0,0.0,97,0.00,,,0.00,WUHU216DAVISVP2,2013-05-17 05:11:00,
2013-05-17 01:16:00,56.3,55.4,29.97,NNE,14,0.0,0.0,97,0.00,,,0.00,WUHU216DAVISVP2,2013-05-17 05:16:00,
2013-05-17 01:21:00,56.3,55.4,29.97,NNE,14,1.0,1.0,97,0.00,,,0.00,WUHU216DAVISVP2,2013-05-17 05:21:00,
2013-05-17 01:26:00,56.4,55.5,29.97,NNE,14,0.0,2.0,97,0.00,,,0.00,WUHU216DAVISVP2,2013-05-17 05:26:00,
2013-05-17 01:31:00,56.3,55.4,29.97,NNE,14,0.0,2.0,97,0.00,,,0.00,WUHU216DAVISVP2,2013-05-17 05:31:00,
2013-05-17 01:36:00,56.4,55.5,29.97,NNE,14,1.0,2.0,97,0.00,,,0.00,WUHU216DAVISVP2,2013-05-17 05:36:00,
2013-05-17 01:41:00,56.2,55.3,29.97,NNE,14,0.0,2.0,97,0.00,,,0.00,WUHU216DAVISVP2,2013-05-17 05:41:00,
2013-05-17 01:46:00,56.1,55.2,29.97,NNE,14,0.0,2.0,97,0.00,,,0.00,WUHU216DAVISVP2,2013-05-17 05:46:00,
2013-05-17 01:51:00,55.9,55.0,29.97,NNE,14,0.0,2.0,97,0.00,,,0.00,WUHU216DAVISVP2,2013-05-17 05:51:00,
2013-05-17 01:56:00,55.9,55.0,29.97,NNE,14,0.0,2.0,97,0.00,,,0.00,WUHU216DAVISVP2,2013-05-17 05:56:00,
2013-05-17 02:01:00,55.9,55.0,29.97,NNE,14,0.0,2.0,97,0.00,,,0.00,WUHU216DAVISVP2,2013-05-17 06:01:00,
2013-05-17 02:06:00,55.9,55.0,29.97,NNE,14,0.0,2.0,97,0.00,,,0.00,WUHU216DAVISVP2,2013-05-17 06:06:00,
2013-05-17 02:11:00,55.9,55.0,29.97,NNE,14,0.0,1.0,97,0.00,,,0.00,WUHU216DAVISVP2,2013-05-17 06:11:00,
2013-05-17 02:16:00,55.8,54.9,29.97,NNE,14,0.0,1.0,97,0.00,,,0.00,WUHU216DAVISVP2,2013-05-17 06:16:00,
2013-05-17 02:21:00,55.8,55.0,29.97,NNE,14,0.0,1.0,97,0.00,,,0.00,WUHU216DAVISVP2,2013-05-17 06:21:00,
2013-05-17 02:26:00,55.7,54.9,29.97,NNE,14,0.0,0.0,97,0.00,,,0.00,WUHU216DAVISVP2,2013-05-17 06:26:00,
2013-05-17 02:31:00,55.7,54.9,29.97,NNE,14,0.0,1.0,97,0.00,,,0.00,WUHU216DAVISVP2,2013-05-17 06:31:00,
2013-05-17 02:36:00,55.6,54.7,29.97,NNE,14,0.0,3.0,97,0.00,,,0.00,WUHU216DAVISVP2,2013-05-17 06:36:00,
2013-05-17 02:41:00,55.6,54.7,29.97,NNE,14,0.0,3.0,97,0.00,,,0.00,WUHU216DAVISVP2,2013-05-17 06:41:00,
2013-05-17 02:46:00,55.7,54.8,29.97,NNE,14,0.0,3.0,97,0.00,,,0.00,WUHU216DAVISVP2,2013-05-17 06:46:00,
2013-05-17 02:51:00,55.7,54.8,29.98,NNE,14,0.0,3.0,97,0.00,,,0.00,WUHU216DAVISVP2,2013-05-17 06:51:00,
2013-05-17 02:56:00,55.7,54.8,29.98,NNE,14,0.0,2.0,97,0.00,,,0.00,WUHU216DAVISVP2,2013-05-17 06:56:00,
2013-05-17 03:01:00,55.6,54.7,29.98,NNE,14,0.0,1.0,97,0.00,,,0.00,WUHU216DAVISVP2,2013-05-17 07:01:00,
2013-05-17 03:06:00,55.6,54.7,29.98,NNE,14,0.0,1.0,97,0.00,,,0.00,WUHU216DAVISVP2,2013-05-17 07:06:00,
2013-05-17 03:11:00,55.5,54.6,29.99,NNE,14,0.0,1.0,97,0.00,,,0.00,WUHU216DAVISVP2,2013-05-17 07:11:00,
2013-05-17 03:16:00,55.5,54.6,29.99,NNE,14,0.0,1.0,97,0.00,,,0.00,WUHU216DAVISVP2,2013-05-17 07:16:00,
2013-05-17 03:21:00,55.5,54.6,29.99,NNE,14,0.0,1.0,97,0.00,,,0.00,WUHU216DAVISVP2,2013-05-17 07:21:00,
2013-05-17 03:26:00,55.6,54.8,30.00,North,0,0.0,1.0,97,0.00,,,0.00,WUHU216DAVISVP2,2013-05-17 07:26:00,
2013-05-17 03:36:00,55.6,54.8,30.00,North,0,0.0,1.0,97,0.00,,,0.00,WUHU216DAVISVP2,2013-05-17 07:36:00,
2013-05-17 03:41:00,55.8,54.9,30.00,NNE,14,0.0,0.0,97,0.00,,,0.00,WUHU216DAVISVP2,2013-05-17 07:41:00,
2013-05-17 03:46:00,55.8,54.9,30.00,NNE,14,0.0,0.0,97,0.00,,,0.00,WUHU216DAVISVP2,2013-05-17 07:46:00,
2013-05-17 03:51:00,55.8,55.2,30.00,NNE,14,0.0,0.0,98,0.00,,,0.00,WUHU216DAVISVP2,2013-05-17 07:51:00,
2013-05-17 03:56:00,55.8,55.2,30.00,NNE,14,0.0,0.0,98,0.00,,,0.00,WUHU216DAVISVP2,2013-05-17 07:56:00,
2013-05-17 04:01:00,55.8,54.9,30.00,NNE,14,0.0,0.0,97,0.00,,,0.00,WUHU216DAVISVP2,2013-05-17 08:01:00,
2013-05-17 04:06:00,55.7,54.8,30.00,NNE,14,0.0,0.0,97,0.00,,,0.00,WUHU216DAVISVP2,2013-05-17 08:06:00,
2013-05-17 04:11:00,55.7,54.8,30.00,NNE,14,0.0,0.0,97,0.00,,,0.00,WUHU216DAVISVP2,2013-05-17 08:11:00,
2013-05-17 04:16:00,55.7,54.8,30.00,NNE,14,0.0,0.0,97,0.00,,,0.00,WUHU216DAVISVP2,2013-05-17 08:16:00,
2013-05-17 04:21:00,55.8,54.9,30.00,NNE,14,0.0,0.0,97,0.00,,,0.00,WUHU216DAVISVP2,2013-05-17 08:21:00,
2013-05-17 04:26:00,55.9,55.3,30.00,NNE,14,0.0,1.0,98,0.00,,,0.00,WUHU216DAVISVP2,2013-05-17 08:26:00,
2013-05-17 04:31:00,56.0,55.4,30.00,NNE,14,0.0,1.0,98,0.00,,,0.00,WUHU216DAVISVP2,2013-05-17 08:31:00,
2013-05-17 04:36:00,56.0,55.4,30.01,NNE,14,0.0,1.0,98,0.00,,,0.00,WUHU216DAVISVP2,2013-05-17 08:36:00,
2013-05-17 04:41:00,56.0,55.4,30.01,NNE,14,0.0,1.0,98,0.00,,,0.00,WUHU216DAVISVP2,2013-05-17 08:41:00,
2013-05-17 04:46:00,56.1,55.5,30.01,NNE,14,0.0,0.0,98,0.00,,,0.00,WUHU216DAVISVP2,2013-05-17 08:46:00,
2013-05-17 04:51:00,56.2,55.6,30.01,NNE,14,0.0,1.0,98,0.00,,,0.00,WUHU216DAVISVP2,2013-05-17 08:51:00,
2013-05-17 04:56:00,56.1,55.3,30.01,NNE,14,0.0,1.0,97,0.00,,,0.00,WUHU216DAVISVP2,2013-05-17 08:56:00,
2013-05-17 05:01:00,56.2,55.4,30.01,NNE,14,0.0,1.0,97,0.00,,,0.00,WUHU216DAVISVP2,2013-05-17 09:01:00,
2013-05-17 05:06:00,56.2,55.4,30.01,NNE,14,0.0,1.0,97,0.00,,,0.00,WUHU216DAVISVP2,2013-05-17 09:06:00,
2013-05-17 05:11:00,56.3,55.7,30.02,NNE,14,0.0,1.0,98,0.00,,,0.00,WUHU216DAVISVP2,2013-05-17 09:11:00,
2013-05-17 05:16:00,56.3,55.7,30.02,NNE,14,0.0,1.0,98,0.00,,,0.00,WUHU216DAVISVP2,2013-05-17 09:16:00,
2013-05-17 05:21:00,56.4,55.5,30.02,NNE,14,0.0,1.0,97,0.00,,,0.00,WUHU216DAVISVP2,2013-05-17 09:21:00,
2013-05-17 05:26:00,56.4,55.5,30.03,NNE,14,0.0,1.0,97,0.00,,,0.00,WUHU216DAVISVP2,2013-05-17 09:26:00,
2013-05-17 05:31:00,56.4,55.5,30.03,NNE,14,0.0,1.0,97,0.00,,,0.00,WUHU216DAVISVP2,2013-05-17 09:31:00,
2013-05-17 05:36:00,56.4,55.8,30.03,NNE,14,0.0,1.0,98,0.00,,,0.00,WUHU216DAVISVP2,2013-05-17 09:36:00,
2013-05-17 05:41:00,56.5,55.9,30.03,NNE,14,0.0,0.0,98,0.00,,,0.00,WUHU216DAVISVP2,2013-05-17 09:41:00,
2013-05-17 05:46:00,56.5,55.9,30.03,NNE,14,0.0,0.0,98,0.00,,,0.00,WUHU216DAVISVP2,2013-05-17 09:46:00,
2013-05-17 05:51:00,56.5,55.9,30.03,NNE,14,0.0,2.0,98,0.00,,,0.00,WUHU216DAVISVP2,2013-05-17 09:51:00,
2013-05-17 05:56:00,56.5,55.9,30.03,NNE,14,0.0,2.0,98,0.00,,,0.00,WUHU216DAVISVP2,2013-05-17 09:56:00,
2013-05-17 06:01:00,56.4,55.5,30.03,NNE,14,0.0,2.0,97,0.00,,,0.00,WUHU216DAVISVP2,2013-05-17 10:01:00,
2013-05-17 06:06:00,56.3,55.4,30.03,NNE,14,0.0,2.0,97,0.00,,,0.00,WUHU216DAVISVP2,2013-05-17 10:06:00,
2013-05-17 06:11:00,56.2,55.3,30.04,NNE,14,0.0,1.0,97,0.00,,,0.00,WUHU216DAVISVP2,2013-05-17 10:11:00,
2013-05-17 06:16:00,56.0,55.1,30.04,NNE,14,0.0,0.0,97,0.00,,,0.00,WUHU216DAVISVP2,2013-05-17 10:16:00,
2013-05-17 06:21:00,55.8,54.9,30.04,NNE,14,0.0,0.0,97,0.00,,,0.00,WUHU216DAVISVP2,2013-05-17 10:21:00,
2013-05-17 06:26:00,55.7,54.8,30.05,NNE,14,0.0,0.0,97,0.00,,,0.00,WUHU216DAVISVP2,2013-05-17 10:26:00,
2013-05-17 06:31:00,55.6,54.7,30.05,NNE,14,0.0,0.0,97,0.00,,,0.00,WUHU216DAVISVP2,2013-05-17 10:31:00,
2013-05-17 06:36:00,55.5,54.6,30.05,NNE,14,0.0,1.0,97,0.00,,,0.00,WUHU216DAVISVP2,2013-05-17 10:36:00,
2013-05-17 06:41:00,55.4,54.5,30.05,NNE,14,0.0,1.0,97,0.00,,,0.00,WUHU216DAVISVP2,2013-05-17 10:41:00,
2013-05-17 06:46:00,55.4,54.5,30.06,NNE,14,0.0,1.0,97,0.00,,,0.00,WUHU216DAVISVP2,2013-05-17 10:46:00,
2013-05-17 06:51:00,55.4,54.5,30.06,NNE,14,0.0,1.0,97,0.00,,,0.00,WUHU216DAVISVP2,2013-05-17 10:51:00,
2013-05-17 06:56:00,55.4,54.5,30.06,NNE,14,0.0,1.0,97,0.00,,,0.00,WUHU216DAVISVP2,2013-05-17 10:56:00,
2013-05-17 07:01:00,55.5,54.6,30.06,NNE,14,0.0,1.0,97,0.00,,,0.00,WUHU216DAVISVP2,2013-05-17 11:01:00,
2013-05-17 07:06:00,55.5,54.6,30.06,NNE,14,0.0,1.0,97,0.00,,,0.00,WUHU216DAVISVP2,2013-05-17 11:06:00,
2013-05-17 07:11:00,55.7,55.1,30.07,NNE,14,0.0,1.0,98,0.00,,,0.00,WUHU216DAVISVP2,2013-05-17 11:11:00,
2013-05-17 07:16:00,55.8,55.2,30.07,NNE,14,0.0,1.0,98,0.00,,,0.00,WUHU216DAVISVP2,2013-05-17 11:16:00,
2013-05-17 07:21:00,55.9,55.3,30.07,NNE,14,0.0,1.0,98,0.00,,,0.00,WUHU216DAVISVP2,2013-05-17 11:21:00,
2013-05-17 07:26:00,56.0,55.4,30.07,NNE,14,0.0,1.0,98,0.00,,,0.00,WUHU216DAVISVP2,2013-05-17 11:26:00,
2013-05-17 07:31:00,56.1,55.5,30.07,NNE,14,0.0,0.0,98,0.00,,,0.00,WUHU216DAVISVP2,2013-05-17 11:31:00,
2013-05-17 07:36:00,56.3,55.7,30.07,NNE,14,0.0,1.0,98,0.00,,,0.00,WUHU216DAVISVP2,2013-05-17 11:36:00,
2013-05-17 07:41:00,56.5,55.9,30.07,NNE,14,0.0,1.0,98,0.00,,,0.00,WUHU216DAVISVP2,2013-05-17 11:41:00,
2013-05-17 07:46:00,56.7,56.1,30.08,NNE,14,0.0,2.0,98,0.00,,,0.00,WUHU216DAVISVP2,2013-05-17 11:46:00,
2013-05-17 07:51:00,56.9,56.3,30.08,NNE,14,1.0,2.0,98,0.00,,,0.00,WUHU216DAVISVP2,2013-05-17 11:51:00,
2013-05-17 07:56:00,57.1,56.5,30.08,NNE,14,0.0,2.0,98,0.00,,,0.00,WUHU216DAVISVP2,2013-05-17 11:56:00,
2013-05-17 08:01:00,57.4,56.8,30.08,NNE,14,0.0,2.0,98,0.00,,,0.00,WUHU216DAVISVP2,2013-05-17 12:01:00,
2013-05-17 08:06:00,57.6,57.0,30.08,NNE,14,0.0,1.0,98,0.00,,,0.00,WUHU216DAVISVP2,2013-05-17 12:06:00,
2013-05-17 08:11:00,58.0,57.4,30.08,NNE,14,0.0,1.0,98,0.00,,,0.00,WUHU216DAVISVP2,2013-05-17 12:11:00,
2013-05-17 08:16:00,58.5,57.9,30.08,NNE,14,0.0,0.0,98,0.00,,,0.00,WUHU216DAVISVP2,2013-05-17 12:16:00,
2013-05-17 08:21:00,58.9,58.3,30.08,NNE,14,1.0,2.0,98,0.00,,,0.00,WUHU216DAVISVP2,2013-05-17 12:21:00,
2013-05-17 08:26:00,59.2,58.6,30.08,NNE,14,0.0,2.0,98,0.00,,,0.00,WUHU216DAVISVP2,2013-05-17 12:26:00,
2013-05-17 08:31:00,59.6,59.0,30.08,NNE,14,0.0,2.0,98,0.00,,,0.00,WUHU216DAVISVP2,2013-05-17 12:31:00,
2013-05-17 08:36:00,60.0,59.4,30.08,NNE,14,0.0,2.0,98,0.00,,,0.00,WUHU216DAVISVP2,2013-05-17 12:36:00,
2013-05-17 08:41:00,60.5,59.6,30.08,NNE,14,0.0,0.0,97,0.00,,,0.00,WUHU216DAVISVP2,2013-05-17 12:41:00,
2013-05-17 08:46:00,60.9,60.0,30.08,North,359,2.0,2.0,97,0.00,,,0.00,WUHU216DAVISVP2,2013-05-17 12:46:00,
2013-05-17 08:51:00,61.2,60.0,30.08,North,359,0.0,2.0,96,0.00,,,0.00,WUHU216DAVISVP2,2013-05-17 12:51:00,
2013-05-17 08:56:00,61.6,60.1,30.08,ENE,68,2.0,2.0,95,0.00,,,0.00,WUHU216DAVISVP2,2013-05-17 12:56:00,
2013-05-17 09:01:00,62.1,60.3,30.08,East,90,1.0,3.0,94,0.00,,,0.00,WUHU216DAVISVP2,2013-05-17 13:01:00,
2013-05-17 09:06:00,62.5,59.8,30.08,East,96,0.0,3.0,91,0.00,,,0.00,WUHU216DAVISVP2,2013-05-17 13:06:00,
2013-05-17 09:11:00,63.0,60.0,30.08,South,177,0.0,4.0,90,0.00,,,0.00,WUHU216DAVISVP2,2013-05-17 13:11:00,
2013-05-17 09:16:00,63.4,59.5,30.08,SW,226,3.0,6.0,87,0.00,,,0.00,WUHU216DAVISVP2,2013-05-17 13:16:00,
2013-05-17 09:21:00,63.9,60.0,30.09,SSW,201,4.0,6.0,87,0.00,,,0.00,WUHU216DAVISVP2,2013-05-17 13:21:00,
2013-05-17 09:26:00,64.1,59.5,30.09,South,181,3.0,9.0,85,0.00,,,0.00,WUHU216DAVISVP2,2013-05-17 13:26:00,
2013-05-17 09:31:00,64.5,60.5,30.08,SE,144,0.0,9.0,87,0.00,,,0.00,WUHU216DAVISVP2,2013-05-17 13:31:00,
2013-05-17 09:36:00,65.0,60.4,30.08,ESE,114,0.0,8.0,85,0.00,,,0.00,WUHU216DAVISVP2,2013-05-17 13:36:00,
2013-05-17 09:41:00,65.3,60.7,30.08,SE,127,1.0,8.0,85,0.00,,,0.00,WUHU216DAVISVP2,2013-05-17 13:41:00,
2013-05-17 09:46:00,65.7,60.4,30.08,SE,140,0.0,4.0,83,0.00,,,0.00,WUHU216DAVISVP2,2013-05-17 13:46:00,
2013-05-17 09:51:00,66.1,60.8,30.08,SE,135,0.0,3.0,83,0.00,,,0.00,WUHU216DAVISVP2,2013-05-17 13:51:00,
2013-05-17 09:56:00,66.6,61.0,30.08,WSW,251,0.0,2.0,82,0.00,,,0.00,WUHU216DAVISVP2,2013-05-17 13:56:00,
2013-05-17 10:01:00,66.9,60.5,30.08,SSW,197,0.0,2.0,80,0.00,,,0.00,WUHU216DAVISVP2,2013-05-17 14:01:00,
2013-05-17 10:06:00,67.2,60.8,30.08,SW,217,1.0,4.0,80,0.00,,,0.00,WUHU216DAVISVP2,2013-05-17 14:06:00,
2013-05-17 10:11:00,67.4,60.7,30.08,SE,128,0.0,4.0,79,0.00,,,0.00,WUHU216DAVISVP2,2013-05-17 14:11:00,
2013-05-17 10:16:00,67.6,60.9,30.08,South,182,0.0,5.0,79,0.00,,,0.00,WUHU216DAVISVP2,2013-05-17 14:16:00,
2013-05-17 10:21:00,68.0,60.6,30.08,ENE,74,1.0,5.0,77,0.00,,,0.00,WUHU216DAVISVP2,2013-05-17 14:21:00,
2013-05-17 10:26:00,68.4,62.4,30.07,SSE,161,1.0,5.0,81,0.00,,,0.00,WUHU216DAVISVP2,2013-05-17 14:26:00,
2013-05-17 10:31:00,68.7,62.0,30.07,SSE,154,1.0,5.0,79,0.00,,,0.00,WUHU216DAVISVP2,2013-05-17 14:31:00,
2013-05-17 10:36:00,69.1,62.1,30.07,East,84,1.0,4.0,78,0.00,,,0.00,WUHU216DAVISVP2,2013-05-17 14:36:00,
2013-05-17 10:41:00,69.6,61.8,30.07,ESE,106,0.0,4.0,76,0.00,,,0.00,WUHU216DAVISVP2,2013-05-17 14:41:00,
2013-05-17 10:46:00,69.9,61.8,30.07,SSW,195,0.0,5.0,75,0.00,,,0.00,WUHU216DAVISVP2,2013-05-17 14:46:00,
2013-05-17 10:51:00,70.3,63.1,30.07,SE,144,2.0,5.0,78,0.00,,,0.00,WUHU216DAVISVP2,2013-05-17 14:51:00,
2013-05-17 10:56:00,70.7,61.6,30.07,SSW,197,2.0,5.0,73,0.00,,,0.00,WUHU216DAVISVP2,2013-05-17 14:56:00,
2013-05-17 11:01:00,71.0,61.5,30.07,SSE,147,1.0,5.0,72,0.00,,,0.00,WUHU216DAVISVP2,2013-05-17 15:01:00,
2013-05-17 11:06:00,71.3,61.0,30.07,North,4,2.0,4.0,70,0.00,,,0.00,WUHU216DAVISVP2,2013-05-17 15:06:00,
2013-05-17 11:11:00,71.6,60.7,30.07,WNW,291,0.0,4.0,68,0.00,,,0.00,WUHU216DAVISVP2,2013-05-17 15:11:00,
2013-05-17 11:16:00,72.1,60.7,30.07,SW,234,1.0,6.0,67,0.00,,,0.00,WUHU216DAVISVP2,2013-05-17 15:16:00,
2013-05-17 11:21:00,72.6,60.8,30.07,SW,216,0.0,6.0,66,0.00,,,0.00,WUHU216DAVISVP2,2013-05-17 15:21:00,
2013-05-17 11:26:00,73.0,62.4,30.07,SE,126,0.0,6.0,69,0.00,,,0.00,WUHU216DAVISVP2,2013-05-17 15:26:00,
2013-05-17 11:31:00,73.6,62.2,30.06,SSE,164,0.0,6.0,67,0.00,,,0.00,WUHU216DAVISVP2,2013-05-17 15:31:00,
2013-05-17 11:36:00,74.0,61.3,30.06,SE,139,2.0,4.0,64,0.00,,,0.00,WUHU216DAVISVP2,2013-05-17 15:36:00,
2013-05-17 11:41:00,74.0,61.7,30.06,ENE,72,4.0,5.0,65,0.00,,,0.00,WUHU216DAVISVP2,2013-05-17 15:41:00,
2013-05-17 11:46:00,74.3,62.0,30.06,SE,130,3.0,5.0,65,0.00,,,0.00,WUHU216DAVISVP2,2013-05-17 15:46:00,
2013-05-17 11:51:00,74.8,62.0,30.06,ESE,119,0.0,6.0,64,0.00,,,0.00,WUHU216DAVISVP2,2013-05-17 15:51:00,
2013-05-17 11:56:00,75.3,61.6,30.06,ESE,114,1.0,6.0,62,0.00,,,0.00,WUHU216DAVISVP2,2013-05-17 15:56:00,
2013-05-17 12:01:00,75.5,59.2,30.06,NE,38,1.0,5.0,57,0.00,,,0.00,WUHU216DAVISVP2,2013-05-17 16:01:00,
2013-05-17 12:06:00,75.9,61.5,30.05,ENE,70,4.0,5.0,61,0.00,,,0.00,WUHU216DAVISVP2,2013-05-17 16:06:00,
2013-05-17 12:11:00,76.2,57.4,30.05,West,279,3.0,6.0,52,0.00,,,0.00,WUHU216DAVISVP2,2013-05-17 16:11:00,
2013-05-17 12:16:00,76.7,57.3,30.05,WNW,298,2.0,6.0,51,0.00,,,0.00,WUHU216DAVISVP2,2013-05-17 16:16:00,
2013-05-17 12:21:00,77.1,55.4,30.05,NNW,347,2.0,6.0,47,0.00,,,0.00,WUHU216DAVISVP2,2013-05-17 16:21:00,
2013-05-17 12:26:00,77.2,56.0,30.05,NW,318,3.0,7.0,48,0.00,,,0.00,WUHU216DAVISVP2,2013-05-17 16:26:00,
2013-05-17 12:31:00,77.4,56.7,30.05,NW,320,3.0,7.0,49,0.00,,,0.00,WUHU216DAVISVP2,2013-05-17 16:31:00,
2013-05-17 12:36:00,77.0,59.1,30.05,NW,305,1.0,7.0,54,0.00,,,0.00,WUHU216DAVISVP2,2013-05-17 16:36:00,
2013-05-17 12:41:00,77.3,60.4,30.05,WNW,302,0.0,7.0,56,0.00,,,0.00,WUHU216DAVISVP2,2013-05-17 16:41:00,
2013-05-17 12:46:00,77.9,57.9,30.05,SSW,195,1.0,7.0,50,0.00,,,0.00,WUHU216DAVISVP2,2013-05-17 16:46:00,
2013-05-17 12:51:00,78.3,59.9,30.05,WSW,255,1.0,7.0,53,0.00,,,0.00,WUHU216DAVISVP2,2013-05-17 16:51:00,
2013-05-17 12:56:00,78.6,57.9,30.05,SW,224,4.0,7.0,49,0.00,,,0.00,WUHU216DAVISVP2,2013-05-17 16:56:00,
2013-05-17 13:01:00,78.9,61.0,30.04,SE,128,0.0,6.0,54,0.00,,,0.00,WUHU216DAVISVP2,2013-05-17 17:01:00,
2013-05-17 13:06:00,79.2,55.4,30.04,West,278,2.0,6.0,44,0.00,,,0.00,WUHU216DAVISVP2,2013-05-17 17:06:00,
2013-05-17 13:11:00,79.2,56.7,30.04,East,87,2.0,4.0,46,0.00,,,0.00,WUHU216DAVISVP2,2013-05-17 17:11:00,
2013-05-17 13:16:00,79.2,57.3,30.04,ENE,74,0.0,3.0,47,0.00,,,0.00,WUHU216DAVISVP2,2013-05-17 17:16:00,
2013-05-17 13:21:00,79.4,56.9,30.04,ENE,77,1.0,3.0,46,0.00,,,0.00,WUHU216DAVISVP2,2013-05-17 17:21:00,
2013-05-17 13:26:00,80.2,55.7,30.04,ENE,58,3.0,5.0,43,0.00,,,0.00,WUHU216DAVISVP2,2013-05-17 17:26:00,
2013-05-17 13:31:00,79.9,59.1,30.03,SE,141,4.0,5.0,49,0.00,,,0.00,WUHU216DAVISVP2,2013-05-17 17:31:00,
2013-05-17 13:36:00,79.9,54.7,30.03,ESE,106,2.0,5.0,42,0.00,,,0.00,WUHU216DAVISVP2,2013-05-17 17:36:00,
2013-05-17 13:41:00,79.8,53.3,30.03,ENE,70,0.0,4.0,40,0.00,,,0.00,WUHU216DAVISVP2,2013-05-17 17:41:00,
2013-05-17 13:46:00,79.3,52.1,30.03,ENE,64,1.0,4.0,39,0.00,,,0.00,WUHU216DAVISVP2,2013-05-17 17:46:00,
2013-05-17 13:51:00,78.8,56.3,30.03,ENE,65,0.0,3.0,46,0.00,,,0.00,WUHU216DAVISVP2,2013-05-17 17:51:00,
2013-05-17 13:56:00,79.4,54.9,30.03,East,85,0.0,3.0,43,0.00,,,0.00,WUHU216DAVISVP2,2013-05-17 17:56:00,
2013-05-17 14:01:00,80.2,56.3,30.03,ESE,107,0.0,3.0,44,0.00,,,0.00,WUHU216DAVISVP2,2013-05-17 18:01:00,
2013-05-17 14:06:00,80.7,56.8,30.03,SW,218,0.0,4.0,44,0.00,,,0.00,WUHU216DAVISVP2,2013-05-17 18:06:00,
2013-05-17 14:11:00,81.2,54.5,30.03,SE,129,0.0,4.0,40,0.00,,,0.00,WUHU216DAVISVP2,2013-05-17 18:11:00,
2013-05-17 14:16:00,81.1,55.8,30.03,SSW,197,2.0,4.0,42,0.00,,,0.00,WUHU216DAVISVP2,2013-05-17 18:16:00,
2013-05-17 14:21:00,81.1,53.7,30.03,West,260,0.0,4.0,39,0.00,,,0.00,WUHU216DAVISVP2,2013-05-17 18:21:00,
2013-05-17 14:26:00,80.9,52.8,30.02,North,349,2.0,5.0,38,0.00,,,0.00,WUHU216DAVISVP2,2013-05-17 18:26:00,
2013-05-17 14:31:00,80.4,52.4,30.02,WNW,302,0.0,5.0,38,0.00,,,0.00,WUHU216DAVISVP2,2013-05-17 18:31:00,
2013-05-17 14:36:00,80.1,52.8,30.02,WNW,301,1.0,5.0,39,0.00,,,0.00,WUHU216DAVISVP2,2013-05-17 18:36:00,
2013-05-17 14:41:00,79.9,56.7,30.02,WNW,299,0.0,5.0,45,0.00,,,0.00,WUHU216DAVISVP2,2013-05-17 18:41:00,
2013-05-17 14:46:00,79.9,54.7,30.02,South,183,1.0,5.0,42,0.00,,,0.00,WUHU216DAVISVP2,2013-05-17 18:46:00,
2013-05-17 14:51:00,79.6,52.5,30.02,SW,224,0.0,5.0,39,0.00,,,0.00,WUHU216DAVISVP2,2013-05-17 18:51:00,
2013-05-17 14:56:00,79.3,54.2,30.02,North,359,2.0,4.0,42,0.00,,,0.00,WUHU216DAVISVP2,2013-05-17 18:56:00,
2013-05-17 15:01:00,78.9,53.2,30.02,NNW,343,4.0,6.0,41,0.00,,,0.00,WUHU216DAVISVP2,2013-05-17 19:01:00,
2013-05-17 15:06:00,78.5,52.8,30.02,NW,316,1.0,6.0,41,0.00,,,0.00,WUHU216DAVISVP2,2013-05-17 19:06:00,
2013-05-17 15:11:00,78.4,51.3,30.02,NNW,345,1.0,6.0,39,0.00,,,0.00,WUHU216DAVISVP2,2013-05-17 19:11:00,
2013-05-17 15:16:00,78.4,53.4,30.02,NE,47,1.0,6.0,42,0.00,,,0.00,WUHU216DAVISVP2,2013-05-17 19:16:00,
2013-05-17 15:21:00,78.8,52.4,30.02,NE,47,0.0,6.0,40,0.00,,,0.00,WUHU216DAVISVP2,2013-05-17 19:21:00,
2013-05-17 15:26:00,79.2,56.7,30.02,South,191,1.0,5.0,46,0.00,,,0.00,WUHU216DAVISVP2,2013-05-17 19:26:00,
2013-05-17 15:31:00,79.2,56.7,30.01,SE,141,0.0,3.0,46,0.00,,,0.00,WUHU216DAVISVP2,2013-05-17 19:31:00,
2013-05-17 15:36:00,79.2,52.7,30.01,South,170,1.0,3.0,40,0.00,,,0.00,WUHU216DAVISVP2,2013-05-17 19:36:00,
2013-05-17 15:41:00,79.0,53.2,30.01,SW,218,3.0,3.0,41,0.00,,,0.00,WUHU216DAVISVP2,2013-05-17 19:41:00,
2013-05-17 15:46:00,78.9,54.5,30.01,NW,316,1.0,4.0,43,0.00,,,0.00,WUHU216DAVISVP2,2013-05-17 19:46:00,
2013-05-17 15:51:00,79.2,52.7,30.01,NW,324,1.0,5.0,40,0.00,,,0.00,WUHU216DAVISVP2,2013-05-17 19:51:00,
2013-05-17 15:56:00,79.3,52.1,30.01,NNW,335,6.0,7.0,39,0.00,,,0.00,WUHU216DAVISVP2,2013-05-17 19:56:00,
2013-05-17 16:01:00,79.1,51.9,30.01,NW,318,3.0,8.0,39,0.00,,,0.00,WUHU216DAVISVP2,2013-05-17 20:01:00,
2013-05-17 16:06:00,78.9,51.7,30.01,North,354,1.0,8.0,39,0.00,,,0.00,WUHU216DAVISVP2,2013-05-17 20:06:00,
2013-05-17 16:11:00,78.9,51.0,30.01,North,4,2.0,8.0,38,0.00,,,0.00,WUHU216DAVISVP2,2013-05-17 20:11:00,
2013-05-17 16:16:00,79.0,51.1,30.01,NW,324,4.0,8.0,38,0.00,,,0.00,WUHU216DAVISVP2,2013-05-17 20:16:00,
2013-05-17 16:21:00,78.7,50.8,30.01,NW,313,3.0,7.0,38,0.00,,,0.00,WUHU216DAVISVP2,2013-05-17 20:21:00,
2013-05-17 16:26:00,78.5,52.1,30.01,NNW,328,0.0,7.0,40,0.00,,,0.00,WUHU216DAVISVP2,2013-05-17 20:26:00,
2013-05-17 16:31:00,78.4,52.0,30.01,North,4,3.0,7.0,40,0.00,,,0.00,WUHU216DAVISVP2,2013-05-17 20:31:00,
2013-05-17 16:36:00,78.4,51.3,30.01,NW,305,5.0,7.0,39,0.00,,,0.00,WUHU216DAVISVP2,2013-05-17 20:36:00,
2013-05-17 16:41:00,78.2,51.8,30.01,NNW,335,5.0,8.0,40,0.00,,,0.00,WUHU216DAVISVP2,2013-05-17 20:41:00,
2013-05-17 16:46:00,78.2,51.8,30.01,NNW,328,2.0,8.0,40,0.00,,,0.00,WUHU216DAVISVP2,2013-05-17 20:46:00,
2013-05-17 16:51:00,78.4,52.7,30.01,NNW,328,3.0,8.0,41,0.00,,,0.00,WUHU216DAVISVP2,2013-05-17 20:51:00,
2013-05-17 16:56:00,78.8,50.2,30.01,NW,311,7.0,10.0,37,0.00,,,0.00,WUHU216DAVISVP2,2013-05-17 20:56:00,
2013-05-17 17:01:00,79.0,52.6,30.01,North,359,4.0,10.0,40,0.00,,,0.00,WUHU216DAVISVP2,2013-05-17 21:01:00,
2013-05-17 17:06:00,79.4,51.6,30.00,North,4,5.0,10.0,38,0.00,,,0.00,WUHU216DAVISVP2,2013-05-17 21:06:00,
2013-05-17 17:11:00,79.9,52.7,30.01,WNW,300,5.0,10.0,39,0.00,,,0.00,WUHU216DAVISVP2,2013-05-17 21:11:00,
2013-05-17 17:16:00,80.0,52.1,30.01,NNW,339,6.0,9.0,38,0.00,,,0.00,WUHU216DAVISVP2,2013-05-17 21:16:00,
2013-05-17 17:21:00,80.0,52.8,30.01,NW,309,4.0,9.0,39,0.00,,,0.00,WUHU216DAVISVP2,2013-05-17 21:21:00,
2013-05-17 17:26:00,80.0,52.0,30.01,NW,310,4.0,8.0,38,0.00,,,0.00,WUHU216DAVISVP2,2013-05-17 21:26:00,
2013-05-17 17:31:00,79.9,52.6,30.01,NNW,333,5.0,8.0,39,0.00,,,0.00,WUHU216DAVISVP2,2013-05-17 21:31:00,
2013-05-17 17:36:00,79.9,52.6,30.01,NNW,344,6.0,10.0,39,0.00,,,0.00,WUHU216DAVISVP2,2013-05-17 21:36:00,
2013-05-17 17:41:00,79.6,52.4,30.01,NNW,328,6.0,10.0,39,0.00,,,0.00,WUHU216DAVISVP2,2013-05-17 21:41:00,
2013-05-17 17:46:00,79.3,52.8,30.01,NNW,345,4.0,10.0,40,0.00,,,0.00,WUHU216DAVISVP2,2013-05-17 21:46:00,
2013-05-17 17:51:00,79.2,52.0,30.01,NW,325,2.0,10.0,39,0.00,,,0.00,WUHU216DAVISVP2,2013-05-17 21:51:00,
2013-05-17 17:56:00,79.1,51.9,30.01,North,354,4.0,9.0,39,0.00,,,0.00,WUHU216DAVISVP2,2013-05-17 21:56:00,
2013-05-17 18:01:00,79.2,51.3,30.01,WNW,303,4.0,8.0,38,0.00,,,0.00,WUHU216DAVISVP2,2013-05-17 22:01:00,
2013-05-17 18:06:00,79.3,51.5,30.01,NNW,345,1.0,7.0,38,0.00,,,0.00,WUHU216DAVISVP2,2013-05-17 22:06:00,
2013-05-17 18:11:00,79.4,51.6,30.01,WNW,303,3.0,7.0,38,0.00,,,0.00,WUHU216DAVISVP2,2013-05-17 22:11:00,
2013-05-17 18:16:00,79.4,52.3,30.01,NNW,336,2.0,7.0,39,0.00,,,0.00,WUHU216DAVISVP2,2013-05-17 22:16:00,
2013-05-17 18:21:00,79.3,51.5,30.01,NW,322,1.0,6.0,38,0.00,,,0.00,WUHU216DAVISVP2,2013-05-17 22:21:00,
2013-05-17 18:26:00,79.3,51.5,30.01,NNW,329,4.0,6.0,38,0.00,,,0.00,WUHU216DAVISVP2,2013-05-17 22:26:00,
2013-05-17 18:31:00,79.1,52.0,30.01,NW,316,4.0,6.0,39,0.00,,,0.00,WUHU216DAVISVP2,2013-05-17 22:31:00,
2013-05-17 18:36:00,78.9,52.5,30.01,NW,322,4.0,6.0,40,0.00,,,0.00,WUHU216DAVISVP2,2013-05-17 22:36:00,
2013-05-17 18:41:00,78.8,52.4,30.01,North,8,2.0,6.0,40,0.00,,,0.00,WUHU216DAVISVP2,2013-05-17 22:41:00,
2013-05-17 18:46:00,78.7,52.3,30.01,NW,306,2.0,6.0,40,0.00,,,0.00,WUHU216DAVISVP2,2013-05-17 22:46:00,
2013-05-17 18:51:00,78.6,52.9,30.01,NNW,340,5.0,7.0,41,0.00,,,0.00,WUHU216DAVISVP2,2013-05-17 22:51:00,
2013-05-17 18:56:00,78.4,53.4,30.01,NW,317,2.0,7.0,42,0.00,,,0.00,WUHU216DAVISVP2,2013-05-17 22:56:00,
2013-05-17 19:01:00,78.2,53.8,30.01,NW,322,4.0,7.0,43,0.00,,,0.00,WUHU216DAVISVP2,2013-05-17 23:01:00,
2013-05-17 19:06:00,78.0,53.0,30.01,NW,320,1.0,7.0,42,0.00,,,0.00,WUHU216DAVISVP2,2013-05-17 23:06:00,
2013-05-17 19:11:00,77.7,54.0,30.01,NNW,344,0.0,6.0,44,0.00,,,0.00,WUHU216DAVISVP2,2013-05-17 23:11:00,
2013-05-17 19:16:00,77.5,54.5,30.01,North,354,3.0,6.0,45,0.00,,,0.00,WUHU216DAVISVP2,2013-05-17 23:16:00,
2013-05-17 19:21:00,77.4,55.0,30.01,NNW,338,0.0,6.0,46,0.00,,,0.00,WUHU216DAVISVP2,2013-05-17 23:21:00,
2013-05-17 19:26:00,77.1,54.1,30.02,North,349,0.0,5.0,45,0.00,,,0.00,WUHU216DAVISVP2,2013-05-17 23:26:00,
2013-05-17 19:31:00,77.1,56.5,30.02,NNW,348,0.0,4.0,49,0.00,,,0.00,WUHU216DAVISVP2,2013-05-17 23:31:00,
2013-05-17 19:36:00,76.9,56.4,30.02,NNW,348,0.0,4.0,49,0.00,,,0.00,WUHU216DAVISVP2,2013-05-17 23:36:00,
2013-05-17 19:41:00,76.6,58.3,30.02,NNW,348,0.0,3.0,53,0.00,,,0.00,WUHU216DAVISVP2,2013-05-17 23:41:00,
2013-05-17 19:46:00,76.0,58.3,30.02,NNW,348,0.0,2.0,54,0.00,,,0.00,WUHU216DAVISVP2,2013-05-17 23:46:00,
2013-05-17 19:51:00,75.1,60.0,30.02,NNW,348,0.0,1.0,59,0.00,,,0.00,WUHU216DAVISVP2,2013-05-17 23:51:00,
2013-05-17 19:56:00,74.1,59.0,30.02,NNW,348,0.0,1.0,59,0.00,,,0.00,WUHU216DAVISVP2,2013-05-17 23:56:00,
2013-05-17 20:01:00,73.2,58.7,30.03,NNW,348,0.0,1.0,60,0.00,,,0.00,WUHU216DAVISVP2,2013-05-18 00:01:00,
2013-05-17 20:06:00,72.4,58.8,30.03,NNW,348,0.0,1.0,62,0.00,,,0.00,WUHU216DAVISVP2,2013-05-18 00:06:00,
2013-05-17 20:11:00,71.9,58.8,30.03,NNW,348,0.0,1.0,63,0.00,,,0.00,WUHU216DAVISVP2,2013-05-18 00:11:00,
2013-05-17 20:16:00,71.2,59.9,30.03,NNW,348,0.0,1.0,67,0.00,,,0.00,WUHU216DAVISVP2,2013-05-18 00:16:00,
2013-05-17 20:21:00,70.8,59.9,30.03,NNW,348,0.0,1.0,68,0.00,,,0.00,WUHU216DAVISVP2,2013-05-18 00:21:00,
2013-05-17 20:26:00,70.3,59.8,30.03,NNW,348,0.0,1.0,69,0.00,,,0.00,WUHU216DAVISVP2,2013-05-18 00:26:00,
2013-05-17 20:31:00,69.5,59.9,30.03,NNW,348,0.0,0.0,71,0.00,,,0.00,WUHU216DAVISVP2,2013-05-18 00:31:00,
2013-05-17 20:36:00,68.8,59.2,30.04,NNW,348,0.0,1.0,71,0.00,,,0.00,WUHU216DAVISVP2,2013-05-18 00:36:00,
2013-05-17 20:41:00,68.2,59.0,30.04,NNW,348,0.0,1.0,72,0.00,,,0.00,WUHU216DAVISVP2,2013-05-18 00:41:00,
2013-05-17 20:46:00,67.6,58.8,30.04,NNW,348,0.0,2.0,73,0.00,,,0.00,WUHU216DAVISVP2,2013-05-18 00:46:00,
2013-05-17 20:51:00,67.0,58.4,30.04,NNW,348,0.0,2.0,74,0.00,,,0.00,WUHU216DAVISVP2,2013-05-18 00:51:00,
2013-05-17 20:56:00,66.5,58.7,30.05,NNW,348,0.0,2.0,76,0.00,,,0.00,WUHU216DAVISVP2,2013-05-18 00:56:00,
2013-05-17 21:01:00,66.1,58.8,30.05,NNW,348,0.0,2.0,77,0.00,,,0.00,WUHU216DAVISVP2,2013-05-18 01:01:00,
2013-05-17 21:06:00,65.6,58.3,30.05,NNW,347,0.0,1.0,77,0.00,,,0.00,WUHU216DAVISVP2,2013-05-18 01:06:00,
2013-05-17 21:11:00,65.3,58.0,30.05,NNW,347,0.0,1.0,77,0.00,,,0.00,WUHU216DAVISVP2,2013-05-18 01:11:00,
2013-05-17 21:16:00,64.9,58.0,30.05,NNW,347,0.0,1.0,78,0.00,,,0.00,WUHU216DAVISVP2,2013-05-18 01:16:00,
2013-05-17 21:21:00,64.5,57.9,30.06,NNW,347,0.0,1.0,79,0.00,,,0.00,WUHU216DAVISVP2,2013-05-18 01:21:00,
2013-05-17 21:26:00,64.2,57.6,30.06,NNW,347,0.0,1.0,79,0.00,,,0.00,WUHU216DAVISVP2,2013-05-18 01:26:00,
2013-05-17 21:31:00,63.9,58.0,30.06,NNW,347,0.0,1.0,81,0.00,,,0.00,WUHU216DAVISVP2,2013-05-18 01:31:00,
2013-05-17 21:36:00,63.6,57.7,30.06,NNW,347,0.0,1.0,81,0.00,,,0.00,WUHU216DAVISVP2,2013-05-18 01:36:00,
2013-05-17 21:41:00,63.4,57.9,30.06,NNW,347,0.0,1.0,82,0.00,,,0.00,WUHU216DAVISVP2,2013-05-18 01:41:00,
2013-05-17 21:46:00,63.2,57.7,30.06,NNW,347,0.0,1.0,82,0.00,,,0.00,WUHU216DAVISVP2,2013-05-18 01:46:00,
2013-05-17 21:51:00,63.1,57.6,30.06,NNW,347,0.0,0.0,82,0.00,,,0.00,WUHU216DAVISVP2,2013-05-18 01:51:00,
2013-05-17 21:56:00,63.0,57.5,30.07,NNW,348,0.0,1.0,82,0.00,,,0.00,WUHU216DAVISVP2,2013-05-18 01:56:00,
2013-05-17 22:01:00,62.9,57.4,30.07,NNW,347,0.0,1.0,82,0.00,,,0.00,WUHU216DAVISVP2,2013-05-18 02:01:00,
2013-05-17 22:06:00,62.7,57.2,30.07,NNW,347,0.0,1.0,82,0.00,,,0.00,WUHU216DAVISVP2,2013-05-18 02:06:00,
2013-05-17 22:11:00,62.6,57.1,30.07,NNW,347,0.0,1.0,82,0.00,,,0.00,WUHU216DAVISVP2,2013-05-18 02:11:00,
2013-05-17 22:16:00,62.5,57.3,30.07,NNW,348,0.0,0.0,83,0.00,,,0.00,WUHU216DAVISVP2,2013-05-18 02:16:00,
2013-05-17 22:21:00,62.3,57.1,30.07,NNW,347,0.0,0.0,83,0.00,,,0.00,WUHU216DAVISVP2,2013-05-18 02:21:00,
2013-05-17 22:26:00,62.2,57.0,30.07,NNW,348,0.0,0.0,83,0.00,,,0.00,WUHU216DAVISVP2,2013-05-18 02:26:00,
2013-05-17 22:31:00,62.0,56.8,30.07,NNW,347,0.0,0.0,83,0.00,,,0.00,WUHU216DAVISVP2,2013-05-18 02:31:00,
2013-05-17 22:36:00,61.8,56.9,30.07,NNW,347,0.0,0.0,84,0.00,,,0.00,WUHU216DAVISVP2,2013-05-18 02:36:00,
2013-05-17 22:41:00,61.5,57.0,30.07,NNW,347,0.0,0.0,85,0.00,,,0.00,WUHU216DAVISVP2,2013-05-18 02:41:00,
2013-05-17 22:46:00,61.2,56.7,30.07,NNW,347,0.0,0.0,85,0.00,,,0.00,WUHU216DAVISVP2,2013-05-18 02:46:00,
2013-05-17 22:51:00,60.9,56.4,30.07,NNW,348,0.0,0.0,85,0.00,,,0.00,WUHU216DAVISVP2,2013-05-18 02:51:00,
2013-05-17 22:56:00,60.7,56.5,30.07,NNW,347,0.0,0.0,86,0.00,,,0.00,WUHU216DAVISVP2,2013-05-18 02:56:00,
2013-05-17 23:01:00,60.4,56.5,30.07,NNW,347,0.0,0.0,87,0.00,,,0.00,WUHU216DAVISVP2,2013-05-18 03:01:00,
2013-05-17 23:06:00,60.1,56.5,30.07,NNW,347,0.0,0.0,88,0.00,,,0.00,WUHU216DAVISVP2,2013-05-18 03:06:00,
2013-05-17 23:11:00,59.8,56.2,30.07,NNW,347,0.0,0.0,88,0.00,,,0.00,WUHU216DAVISVP2,2013-05-18 03:11:00,
2013-05-17 23:16:00,59.5,55.9,30.08,NNW,347,0.0,0.0,88,0.00,,,0.00,WUHU216DAVISVP2,2013-05-18 03:16:00,
2013-05-17 23:21:00,59.2,55.9,30.08,NNW,347,0.0,0.0,89,0.00,,,0.00,WUHU216DAVISVP2,2013-05-18 03:21:00,
2013-05-17 23:26:00,58.9,55.6,30.07,NNW,347,0.0,0.0,89,0.00,,,0.00,WUHU216DAVISVP2,2013-05-18 03:26:00,
2013-05-17 23:31:00,58.7,55.4,30.07,NNW,347,0.0,0.0,89,0.00,,,0.00,WUHU216DAVISVP2,2013-05-18 03:31:00,
2013-05-17 23:36:00,58.4,55.4,30.08,NNW,347,0.0,0.0,90,0.00,,,0.00,WUHU216DAVISVP2,2013-05-18 03:36:00,
2013-05-17 23:41:00,58.2,55.3,30.08,NNW,347,0.0,0.0,90,0.00,,,0.00,WUHU216DAVISVP2,2013-05-18 03:41:00,
2013-05-17 23:47:00,57.9,55.0,30.08,NNW,347,0.0,0.0,90,0.00,,,0.00,WUHU216DAVISVP2,2013-05-18 03:47:00,
2013-05-17 23:51:00,57.7,55.1,30.08,NNW,347,0.0,0.0,91,0.00,,,0.00,WUHU216DAVISVP2,2013-05-18 03:51:00,
2013-05-17 23:56:00,57.5,54.9,30.08,NNW,347,0.0,0.0,91,0.00,,,0.00,WUHU216DAVISVP2,2013-05-18 03:56:00,